Broad Blunsdon, United Kingdom
Current Conditions -  °F | °C
As of 5:58 PM on Tuesday 21 Oct 2014 (Local Time) from EGVA Reporting Station
Clear Clear  
Wind Chill:   Ceiling: Unl
Heat Index:   Visibility: 6mi
Dew Point:   Wind: 16mph
Humidity: 81%   Direction: 290°WNW
Pressure: 29.95"   Gusts: NA
Location:  51.61°N, 1.78°W
Report Text: EGVA 211658Z AUTO 29014KT 9999 CLR 08/05 A2995 RMK AO2 PK WND 28034/18 RAE1639 SLP146 P1394 T00820051
Loading
Personal Weather Stations






























Interactive Weather Map
Tropical Storm Tracking
New forecast layout! Learn more

10-Day Weather Forecast

Advertisements
Track Severe Weather on mobile